sensor_id;sensor_type;location;lat;lon;timestamp;P1;durP1;ratioP1;P2;durP2;ratioP2
8584;SDS011;7180;52.742;11.420;2024-01-30T00:01:39;15.47;;;14.10;;
8584;SDS011;7180;52.742;11.420;2024-01-30T00:04:05;15.13;;;13.87;;
8584;SDS011;7180;52.742;11.420;2024-01-30T00:06:30;15.23;;;14.03;;
8584;SDS011;7180;52.742;11.420;2024-01-30T00:08:56;14.23;;;13.13;;
8584;SDS011;7180;52.742;11.420;2024-01-30T00:11:21;15.00;;;13.70;;
8584;SDS011;7180;52.742;11.420;2024-01-30T00:13:47;14.00;;;13.00;;
8584;SDS011;7180;52.742;11.420;2024-01-30T00:16:24;14.00;;;12.90;;
8584;SDS011;7180;52.742;11.420;2024-01-30T00:18:50;13.87;;;12.87;;
8584;SDS011;7180;52.742;11.420;2024-01-30T00:21:19;14.60;;;13.30;;
8584;SDS011;7180;52.742;11.420;2024-01-30T00:23:45;14.03;;;12.93;;
8584;SDS011;7180;52.742;11.420;2024-01-30T00:26:10;12.87;;;11.87;;
8584;SDS011;7180;52.742;11.420;2024-01-30T00:28:36;13.87;;;12.77;;
8584;SDS011;7180;52.742;11.420;2024-01-30T00:31:02;13.00;;;12.00;;
8584;SDS011;7180;52.742;11.420;2024-01-30T00:33:28;13.40;;;12.40;;
8584;SDS011;7180;52.742;11.420;2024-01-30T00:35:53;13.00;;;12.10;;
8584;SDS011;7180;52.742;11.420;2024-01-30T00:38:18;13.50;;;12.40;;
8584;SDS011;7180;52.742;11.420;2024-01-30T00:40:43;13.03;;;11.93;;
8584;SDS011;7180;52.742;11.420;2024-01-30T00:43:09;13.33;;;12.33;;
8584;SDS011;7180;52.742;11.420;2024-01-30T00:45:34;13.47;;;12.37;;
8584;SDS011;7180;52.742;11.420;2024-01-30T00:47:59;12.93;;;11.73;;
8584;SDS011;7180;52.742;11.420;2024-01-30T00:50:25;13.20;;;12.10;;
8584;SDS011;7180;52.742;11.420;2024-01-30T00:52:50;13.70;;;12.53;;
8584;SDS011;7180;52.742;11.420;2024-01-30T00:55:15;13.13;;;12.10;;
8584;SDS011;7180;52.742;11.420;2024-01-30T00:57:40;13.93;;;12.83;;
8584;SDS011;7180;52.742;11.420;2024-01-30T01:00:06;13.73;;;12.67;;
8584;SDS011;7180;52.742;11.420;2024-01-30T01:02:34;14.20;;;13.03;;
8584;SDS011;7180;52.742;11.420;2024-01-30T01:05:00;15.20;;;13.60;;
8584;SDS011;7180;52.742;11.420;2024-01-30T01:07:25;14.00;;;12.90;;
8584;SDS011;7180;52.742;11.420;2024-01-30T01:09:50;14.10;;;13.03;;
8584;SDS011;7180;52.742;11.420;2024-01-30T01:12:15;14.00;;;12.90;;
8584;SDS011;7180;52.742;11.420;2024-01-30T01:14:41;13.37;;;12.37;;
8584;SDS011;7180;52.742;11.420;2024-01-30T01:17:06;14.73;;;13.40;;
8584;SDS011;7180;52.742;11.420;2024-01-30T01:19:32;14.23;;;13.03;;
8584;SDS011;7180;52.742;11.420;2024-01-30T01:21:57;13.63;;;12.53;;
8584;SDS011;7180;52.742;11.420;2024-01-30T01:24:22;13.93;;;12.80;;
8584;SDS011;7180;52.742;11.420;2024-01-30T01:26:48;13.83;;;12.73;;
8584;SDS011;7180;52.742;11.420;2024-01-30T01:29:13;14.23;;;13.13;;
8584;SDS011;7180;52.742;11.420;2024-01-30T01:31:38;13.63;;;12.53;;
8584;SDS011;7180;52.742;11.420;2024-01-30T01:34:10;13.33;;;12.33;;
8584;SDS011;7180;52.742;11.420;2024-01-30T01:36:36;13.93;;;12.83;;
8584;SDS011;7180;52.742;11.420;2024-01-30T01:39:01;14.63;;;13.43;;
8584;SDS011;7180;52.742;11.420;2024-01-30T01:41:31;14.77;;;13.60;;
8584;SDS011;7180;52.742;11.420;2024-01-30T01:43:57;14.63;;;13.43;;
8584;SDS011;7180;52.742;11.420;2024-01-30T01:46:22;15.07;;;13.67;;
8584;SDS011;7180;52.742;11.420;2024-01-30T01:48:48;14.93;;;13.73;;
8584;SDS011;7180;52.742;11.420;2024-01-30T01:51:14;15.67;;;14.27;;
8584;SDS011;7180;52.742;11.420;2024-01-30T01:53:40;14.80;;;13.60;;
8584;SDS011;7180;52.742;11.420;2024-01-30T01:56:06;15.00;;;13.80;;
8584;SDS011;7180;52.742;11.420;2024-01-30T01:58:31;14.73;;;13.70;;
8584;SDS011;7180;52.742;11.420;2024-01-30T02:00:57;14.47;;;13.37;;
8584;SDS011;7180;52.742;11.420;2024-01-30T02:03:23;15.43;;;14.13;;
8584;SDS011;7180;52.742;11.420;2024-01-30T02:05:50;14.77;;;13.60;;
8584;SDS011;7180;52.742;11.420;2024-01-30T02:08:15;15.60;;;14.30;;
8584;SDS011;7180;52.742;11.420;2024-01-30T02:10:40;15.03;;;13.83;;
8584;SDS011;7180;52.742;11.420;2024-01-30T02:13:06;16.37;;;14.77;;
8584;SDS011;7180;52.742;11.420;2024-01-30T02:15:31;15.53;;;14.23;;
8584;SDS011;7180;52.742;11.420;2024-01-30T02:17:56;14.57;;;13.40;;
8584;SDS011;7180;52.742;11.420;2024-01-30T02:20:22;14.40;;;13.20;;
8584;SDS011;7180;52.742;11.420;2024-01-30T02:22:49;14.37;;;13.17;;
8584;SDS011;7180;52.742;11.420;2024-01-30T02:25:17;15.40;;;14.20;;
8584;SDS011;7180;52.742;11.420;2024-01-30T02:27:42;15.10;;;13.80;;
8584;SDS011;7180;52.742;11.420;2024-01-30T02:30:08;14.53;;;13.43;;
8584;SDS011;7180;52.742;11.420;2024-01-30T02:32:33;15.73;;;14.47;;
8584;SDS011;7180;52.742;11.420;2024-01-30T02:34:59;15.63;;;14.33;;
8584;SDS011;7180;52.742;11.420;2024-01-30T02:37:24;15.23;;;13.93;;
8584;SDS011;7180;52.742;11.420;2024-01-30T02:39:49;15.23;;;14.03;;
8584;SDS011;7180;52.742;11.420;2024-01-30T02:42:14;15.37;;;14.07;;
8584;SDS011;7180;52.742;11.420;2024-01-30T02:44:40;14.37;;;13.17;;
8584;SDS011;7180;52.742;11.420;2024-01-30T02:47:05;14.30;;;13.20;;
8584;SDS011;7180;52.742;11.420;2024-01-30T02:49:30;14.13;;;13.03;;
8584;SDS011;7180;52.742;11.420;2024-01-30T02:51:55;14.60;;;13.40;;
8584;SDS011;7180;52.742;11.420;2024-01-30T02:54:21;14.20;;;13.10;;
8584;SDS011;7180;52.742;11.420;2024-01-30T02:56:47;14.30;;;13.20;;
8584;SDS011;7180;52.742;11.420;2024-01-30T02:59:13;13.83;;;12.67;;
8584;SDS011;7180;52.742;11.420;2024-01-30T03:01:44;14.50;;;13.30;;
8584;SDS011;7180;52.742;11.420;2024-01-30T03:04:11;14.50;;;13.30;;
8584;SDS011;7180;52.742;11.420;2024-01-30T03:06:37;13.60;;;12.60;;
8584;SDS011;7180;52.742;11.420;2024-01-30T03:09:02;14.83;;;13.53;;
8584;SDS011;7180;52.742;11.420;2024-01-30T03:11:28;15.07;;;13.83;;
8584;SDS011;7180;52.742;11.420;2024-01-30T03:13:53;15.03;;;13.80;;
8584;SDS011;7180;52.742;11.420;2024-01-30T03:16:18;15.37;;;14.17;;
8584;SDS011;7180;52.742;11.420;2024-01-30T03:18:43;14.97;;;13.63;;
8584;SDS011;7180;52.742;11.420;2024-01-30T03:21:09;16.30;;;14.80;;
8584;SDS011;7180;52.742;11.420;2024-01-30T03:23:34;15.67;;;14.37;;
8584;SDS011;7180;52.742;11.420;2024-01-30T03:25:59;16.27;;;14.87;;
8584;SDS011;7180;52.742;11.420;2024-01-30T03:28:24;16.13;;;14.87;;
8584;SDS011;7180;52.742;11.420;2024-01-30T03:30:50;16.63;;;15.23;;
8584;SDS011;7180;52.742;11.420;2024-01-30T03:33:15;15.20;;;14.00;;
8584;SDS011;7180;52.742;11.420;2024-01-30T03:35:40;16.50;;;15.10;;
8584;SDS011;7180;52.742;11.420;2024-01-30T03:38:05;15.70;;;14.43;;
8584;SDS011;7180;52.742;11.420;2024-01-30T03:40:31;16.20;;;14.90;;
8584;SDS011;7180;52.742;11.420;2024-01-30T03:42:56;16.27;;;14.77;;
8584;SDS011;7180;52.742;11.420;2024-01-30T03:45:21;16.67;;;15.27;;
8584;SDS011;7180;52.742;11.420;2024-01-30T03:47:47;16.83;;;15.50;;
8584;SDS011;7180;52.742;11.420;2024-01-30T03:50:12;16.33;;;14.93;;
8584;SDS011;7180;52.742;11.420;2024-01-30T03:52:37;16.53;;;15.10;;
8584;SDS011;7180;52.742;11.420;2024-01-30T03:55:02;16.97;;;15.57;;
8584;SDS011;7180;52.742;11.420;2024-01-30T03:57:28;16.40;;;15.03;;
8584;SDS011;7180;52.742;11.420;2024-01-30T03:59:53;16.90;;;15.57;;
8584;SDS011;7180;52.742;11.420;2024-01-30T04:02:18;16.67;;;15.27;;
8584;SDS011;7180;52.742;11.420;2024-01-30T04:04:43;15.90;;;14.50;;
8584;SDS011;7180;52.742;11.420;2024-01-30T04:07:09;16.97;;;15.53;;
8584;SDS011;7180;52.742;11.420;2024-01-30T04:09:34;16.60;;;15.23;;
8584;SDS011;7180;52.742;11.420;2024-01-30T04:11:59;16.90;;;15.47;;
8584;SDS011;7180;52.742;11.420;2024-01-30T04:14:25;16.30;;;14.97;;
8584;SDS011;7180;52.742;11.420;2024-01-30T04:16:50;16.70;;;15.30;;
8584;SDS011;7180;52.742;11.420;2024-01-30T04:19:15;16.13;;;14.80;;
8584;SDS011;7180;52.742;11.420;2024-01-30T04:21:40;16.00;;;14.73;;
8584;SDS011;7180;52.742;11.420;2024-01-30T04:24:06;17.27;;;15.77;;
8584;SDS011;7180;52.742;11.420;2024-01-30T04:26:31;16.70;;;15.20;;
8584;SDS011;7180;52.742;11.420;2024-01-30T04:28:56;16.53;;;15.03;;
8584;SDS011;7180;52.742;11.420;2024-01-30T04:31:21;16.90;;;15.60;;
8584;SDS011;7180;52.742;11.420;2024-01-30T04:33:47;16.90;;;15.40;;
8584;SDS011;7180;52.742;11.420;2024-01-30T04:36:12;17.07;;;15.67;;
8584;SDS011;7180;52.742;11.420;2024-01-30T04:38:38;18.13;;;16.63;;
8584;SDS011;7180;52.742;11.420;2024-01-30T04:41:03;17.10;;;15.70;;
8584;SDS011;7180;52.742;11.420;2024-01-30T04:43:29;17.87;;;16.17;;
8584;SDS011;7180;52.742;11.420;2024-01-30T04:45:55;17.90;;;16.20;;
8584;SDS011;7180;52.742;11.420;2024-01-30T04:48:20;17.10;;;15.70;;
8584;SDS011;7180;52.742;11.420;2024-01-30T04:50:45;17.03;;;15.63;;
8584;SDS011;7180;52.742;11.420;2024-01-30T04:53:10;16.93;;;15.53;;
8584;SDS011;7180;52.742;11.420;2024-01-30T04:55:36;16.80;;;15.43;;
8584;SDS011;7180;52.742;11.420;2024-01-30T04:58:01;16.53;;;15.03;;
8584;SDS011;7180;52.742;11.420;2024-01-30T05:00:27;17.70;;;16.20;;
8584;SDS011;7180;52.742;11.420;2024-01-30T05:02:52;16.67;;;15.37;;
8584;SDS011;7180;52.742;11.420;2024-01-30T05:05:20;17.63;;;16.13;;
8584;SDS011;7180;52.742;11.420;2024-01-30T05:07:46;18.50;;;16.87;;
8584;SDS011;7180;52.742;11.420;2024-01-30T05:10:12;18.37;;;16.83;;
8584;SDS011;7180;52.742;11.420;2024-01-30T05:12:38;18.37;;;16.77;;
8584;SDS011;7180;52.742;11.420;2024-01-30T05:15:04;17.50;;;16.00;;
8584;SDS011;7180;52.742;11.420;2024-01-30T05:17:29;18.13;;;16.53;;
8584;SDS011;7180;52.742;11.420;2024-01-30T05:19:55;17.93;;;16.33;;
8584;SDS011;7180;52.742;11.420;2024-01-30T05:22:20;17.70;;;16.20;;
8584;SDS011;7180;52.742;11.420;2024-01-30T05:24:45;16.43;;;15.03;;
8584;SDS011;7180;52.742;11.420;2024-01-30T05:27:10;17.80;;;16.20;;
8584;SDS011;7180;52.742;11.420;2024-01-30T05:29:38;17.80;;;16.07;;
8584;SDS011;7180;52.742;11.420;2024-01-30T05:32:03;17.03;;;15.53;;
8584;SDS011;7180;52.742;11.420;2024-01-30T05:34:30;16.20;;;14.80;;
8584;SDS011;7180;52.742;11.420;2024-01-30T05:36:55;16.47;;;15.17;;
8584;SDS011;7180;52.742;11.420;2024-01-30T05:39:20;16.80;;;15.40;;
8584;SDS011;7180;52.742;11.420;2024-01-30T05:41:46;15.53;;;14.23;;
8584;SDS011;7180;52.742;11.420;2024-01-30T05:44:11;15.90;;;14.60;;
8584;SDS011;7180;52.742;11.420;2024-01-30T05:46:37;16.43;;;15.13;;
8584;SDS011;7180;52.742;11.420;2024-01-30T05:49:02;15.37;;;14.07;;
8584;SDS011;7180;52.742;11.420;2024-01-30T05:51:27;14.63;;;13.43;;
8584;SDS011;7180;52.742;11.420;2024-01-30T05:53:53;14.13;;;13.03;;
8584;SDS011;7180;52.742;11.420;2024-01-30T05:56:19;14.30;;;13.10;;
8584;SDS011;7180;52.742;11.420;2024-01-30T05:58:44;15.23;;;13.83;;
8584;SDS011;7180;52.742;11.420;2024-01-30T06:01:09;14.33;;;13.30;;
8584;SDS011;7180;52.742;11.420;2024-01-30T06:03:35;14.60;;;13.50;;
8584;SDS011;7180;52.742;11.420;2024-01-30T06:06:01;14.77;;;13.53;;
8584;SDS011;7180;52.742;11.420;2024-01-30T06:08:26;14.10;;;13.00;;
8584;SDS011;7180;52.742;11.420;2024-01-30T06:10:51;13.90;;;12.70;;
8584;SDS011;7180;52.742;11.420;2024-01-30T06:13:17;14.40;;;13.30;;
8584;SDS011;7180;52.742;11.420;2024-01-30T06:15:42;15.37;;;14.07;;
8584;SDS011;7180;52.742;11.420;2024-01-30T06:18:08;16.10;;;14.70;;
8584;SDS011;7180;52.742;11.420;2024-01-30T06:20:33;16.80;;;15.30;;
8584;SDS011;7180;52.742;11.420;2024-01-30T06:22:58;15.40;;;14.17;;
8584;SDS011;7180;52.742;11.420;2024-01-30T06:25:24;16.60;;;15.10;;
8584;SDS011;7180;52.742;11.420;2024-01-30T06:27:49;16.73;;;15.40;;
8584;SDS011;7180;52.742;11.420;2024-01-30T06:30:14;17.33;;;15.83;;
8584;SDS011;7180;52.742;11.420;2024-01-30T06:32:40;17.83;;;16.20;;
8584;SDS011;7180;52.742;11.420;2024-01-30T06:35:05;19.13;;;17.33;;
8584;SDS011;7180;52.742;11.420;2024-01-30T06:37:31;19.23;;;17.43;;
8584;SDS011;7180;52.742;11.420;2024-01-30T06:39:56;19.63;;;17.70;;
8584;SDS011;7180;52.742;11.420;2024-01-30T06:42:21;19.03;;;17.30;;
8584;SDS011;7180;52.742;11.420;2024-01-30T06:44:46;18.60;;;16.80;;
8584;SDS011;7180;52.742;11.420;2024-01-30T06:47:12;19.53;;;17.73;;
8584;SDS011;7180;52.742;11.420;2024-01-30T06:49:37;18.73;;;17.03;;
8584;SDS011;7180;52.742;11.420;2024-01-30T06:52:06;19.77;;;17.87;;
8584;SDS011;7180;52.742;11.420;2024-01-30T06:54:31;19.53;;;17.63;;
8584;SDS011;7180;52.742;11.420;2024-01-30T06:56:57;19.93;;;18.10;;
8584;SDS011;7180;52.742;11.420;2024-01-30T06:59:23;19.70;;;17.90;;
8584;SDS011;7180;52.742;11.420;2024-01-30T07:01:48;19.90;;;18.10;;
8584;SDS011;7180;52.742;11.420;2024-01-30T07:04:13;19.57;;;17.77;;
8584;SDS011;7180;52.742;11.420;2024-01-30T07:06:39;18.80;;;17.00;;
8584;SDS011;7180;52.742;11.420;2024-01-30T07:09:04;18.37;;;16.87;;
8584;SDS011;7180;52.742;11.420;2024-01-30T07:11:30;17.27;;;15.80;;
8584;SDS011;7180;52.742;11.420;2024-01-30T07:13:55;17.80;;;16.30;;
8584;SDS011;7180;52.742;11.420;2024-01-30T07:16:21;16.97;;;15.57;;
8584;SDS011;7180;52.742;11.420;2024-01-30T07:18:47;17.90;;;16.30;;
8584;SDS011;7180;52.742;11.420;2024-01-30T07:21:12;17.53;;;16.03;;
8584;SDS011;7180;52.742;11.420;2024-01-30T07:23:38;17.03;;;15.53;;
8584;SDS011;7180;52.742;11.420;2024-01-30T07:26:04;17.33;;;15.83;;
8584;SDS011;7180;52.742;11.420;2024-01-30T07:28:31;16.80;;;15.40;;
8584;SDS011;7180;52.742;11.420;2024-01-30T07:30:56;16.60;;;15.20;;
8584;SDS011;7180;52.742;11.420;2024-01-30T07:33:22;16.03;;;14.73;;
8584;SDS011;7180;52.742;11.420;2024-01-30T07:35:47;15.97;;;14.77;;
8584;SDS011;7180;52.742;11.420;2024-01-30T07:38:12;15.47;;;14.17;;
8584;SDS011;7180;52.742;11.420;2024-01-30T07:40:37;16.57;;;15.17;;
8584;SDS011;7180;52.742;11.420;2024-01-30T07:43:03;16.23;;;14.90;;
8584;SDS011;7180;52.742;11.420;2024-01-30T07:45:28;15.90;;;14.50;;
8584;SDS011;7180;52.742;11.420;2024-01-30T07:47:57;16.23;;;14.93;;
8584;SDS011;7180;52.742;11.420;2024-01-30T07:50:24;16.93;;;15.53;;
8584;SDS011;7180;52.742;11.420;2024-01-30T07:52:49;16.13;;;14.77;;
8584;SDS011;7180;52.742;11.420;2024-01-30T07:55:19;15.63;;;14.33;;
8584;SDS011;7180;52.742;11.420;2024-01-30T07:57:45;17.90;;;16.20;;
8584;SDS011;7180;52.742;11.420;2024-01-30T08:00:11;17.80;;;16.23;;
8584;SDS011;7180;52.742;11.420;2024-01-30T08:02:36;18.17;;;16.53;;
8584;SDS011;7180;52.742;11.420;2024-01-30T08:05:02;17.27;;;15.77;;
8584;SDS011;7180;52.742;11.420;2024-01-30T08:07:27;17.40;;;15.90;;
8584;SDS011;7180;52.742;11.420;2024-01-30T08:09:54;17.87;;;16.37;;
8584;SDS011;7180;52.742;11.420;2024-01-30T08:12:19;19.10;;;17.40;;
8584;SDS011;7180;52.742;11.420;2024-01-30T08:14:45;19.90;;;17.97;;
8584;SDS011;7180;52.742;11.420;2024-01-30T08:17:10;20.30;;;18.40;;
8584;SDS011;7180;52.742;11.420;2024-01-30T08:19:35;19.50;;;17.80;;
8584;SDS011;7180;52.742;11.420;2024-01-30T08:22:00;18.93;;;17.27;;
8584;SDS011;7180;52.742;11.420;2024-01-30T08:24:26;20.27;;;18.37;;
8584;SDS011;7180;52.742;11.420;2024-01-30T08:26:51;21.50;;;19.40;;
8584;SDS011;7180;52.742;11.420;2024-01-30T08:29:16;21.60;;;19.67;;
8584;SDS011;7180;52.742;11.420;2024-01-30T08:31:41;20.90;;;18.90;;
8584;SDS011;7180;52.742;11.420;2024-01-30T08:34:07;20.53;;;18.77;;
8584;SDS011;7180;52.742;11.420;2024-01-30T08:36:32;20.40;;;18.50;;
8584;SDS011;7180;52.742;11.420;2024-01-30T08:38:57;20.33;;;18.33;;
8584;SDS011;7180;52.742;11.420;2024-01-30T08:41:23;20.77;;;18.87;;
8584;SDS011;7180;52.742;11.420;2024-01-30T08:43:48;20.70;;;18.60;;
8584;SDS011;7180;52.742;11.420;2024-01-30T08:46:17;21.27;;;19.10;;
8584;SDS011;7180;52.742;11.420;2024-01-30T08:48:43;21.00;;;19.10;;
8584;SDS011;7180;52.742;11.420;2024-01-30T08:51:08;19.43;;;17.73;;
8584;SDS011;7180;52.742;11.420;2024-01-30T08:53:34;20.73;;;18.63;;
8584;SDS011;7180;52.742;11.420;2024-01-30T08:56:00;19.73;;;17.93;;
8584;SDS011;7180;52.742;11.420;2024-01-30T08:58:25;20.17;;;18.17;;
8584;SDS011;7180;52.742;11.420;2024-01-30T09:00:51;19.83;;;18.03;;
8584;SDS011;7180;52.742;11.420;2024-01-30T09:03:17;19.10;;;17.30;;
8584;SDS011;7180;52.742;11.420;2024-01-30T09:05:43;19.57;;;17.77;;
8584;SDS011;7180;52.742;11.420;2024-01-30T09:08:08;20.20;;;18.20;;
8584;SDS011;7180;52.742;11.420;2024-01-30T09:10:33;19.70;;;17.93;;
8584;SDS011;7180;52.742;11.420;2024-01-30T09:12:58;18.70;;;17.00;;
8584;SDS011;7180;52.742;11.420;2024-01-30T09:15:24;19.27;;;17.57;;
8584;SDS011;7180;52.742;11.420;2024-01-30T09:17:49;19.53;;;17.70;;
8584;SDS011;7180;52.742;11.420;2024-01-30T09:20:14;19.60;;;17.80;;
8584;SDS011;7180;52.742;11.420;2024-01-30T09:22:39;18.77;;;17.00;;
8584;SDS011;7180;52.742;11.420;2024-01-30T09:25:05;19.23;;;17.17;;
8584;SDS011;7180;52.742;11.420;2024-01-30T09:27:30;18.50;;;16.80;;
8584;SDS011;7180;52.742;11.420;2024-01-30T09:29:56;19.17;;;17.37;;
8584;SDS011;7180;52.742;11.420;2024-01-30T09:32:21;18.53;;;16.90;;
8584;SDS011;7180;52.742;11.420;2024-01-30T09:34:46;18.77;;;17.07;;
8584;SDS011;7180;52.742;11.420;2024-01-30T09:37:11;18.80;;;17.03;;
8584;SDS011;7180;52.742;11.420;2024-01-30T09:39:38;17.80;;;16.30;;
8584;SDS011;7180;52.742;11.420;2024-01-30T09:45:04;17.53;;;16.03;;
8584;SDS011;7180;52.742;11.420;2024-01-30T09:47:31;18.17;;;16.57;;
8584;SDS011;7180;52.742;11.420;2024-01-30T09:49:57;18.77;;;17.10;;
8584;SDS011;7180;52.742;11.420;2024-01-30T09:52:23;18.70;;;17.00;;
8584;SDS011;7180;52.742;11.420;2024-01-30T09:54:49;18.57;;;16.97;;
8584;SDS011;7180;52.742;11.420;2024-01-30T09:57:17;18.77;;;16.97;;
8584;SDS011;7180;52.742;11.420;2024-01-30T09:59:42;18.10;;;16.53;;
8584;SDS011;7180;52.742;11.420;2024-01-30T10:02:09;19.10;;;17.30;;
8584;SDS011;7180;52.742;11.420;2024-01-30T10:04:34;17.97;;;16.57;;
8584;SDS011;7180;52.742;11.420;2024-01-30T10:07:01;18.53;;;17.00;;
8584;SDS011;7180;52.742;11.420;2024-01-30T10:09:27;18.03;;;16.63;;
8584;SDS011;7180;52.742;11.420;2024-01-30T10:11:53;18.47;;;16.80;;
8584;SDS011;7180;52.742;11.420;2024-01-30T10:14:18;18.07;;;16.47;;
8584;SDS011;7180;52.742;11.420;2024-01-30T10:16:45;17.80;;;16.33;;
8584;SDS011;7180;52.742;11.420;2024-01-30T10:19:11;18.20;;;16.67;;
8584;SDS011;7180;52.742;11.420;2024-01-30T10:21:36;18.10;;;16.60;;
8584;SDS011;7180;52.742;11.420;2024-01-30T10:24:02;18.00;;;16.40;;
8584;SDS011;7180;52.742;11.420;2024-01-30T10:26:27;19.43;;;17.73;;
8584;SDS011;7180;52.742;11.420;2024-01-30T10:28:54;19.80;;;18.00;;
8584;SDS011;7180;52.742;11.420;2024-01-30T10:31:19;19.63;;;17.83;;
8584;SDS011;7180;52.742;11.420;2024-01-30T10:33:45;19.10;;;17.47;;
8584;SDS011;7180;52.742;11.420;2024-01-30T10:36:13;18.13;;;16.60;;
8584;SDS011;7180;52.742;11.420;2024-01-30T10:38:40;19.20;;;17.40;;
8584;SDS011;7180;52.742;11.420;2024-01-30T10:41:07;19.63;;;17.90;;
8584;SDS011;7180;52.742;11.420;2024-01-30T10:43:40;18.73;;;17.13;;
8584;SDS011;7180;52.742;11.420;2024-01-30T10:46:11;19.20;;;17.50;;
8584;SDS011;7180;52.742;11.420;2024-01-30T10:48:46;19.10;;;17.60;;
8584;SDS011;7180;52.742;11.420;2024-01-30T10:51:15;19.87;;;18.20;;
8584;SDS011;7180;52.742;11.420;2024-01-30T10:53:41;19.90;;;18.10;;
8584;SDS011;7180;52.742;11.420;2024-01-30T10:56:11;20.43;;;18.37;;
8584;SDS011;7180;52.742;11.420;2024-01-30T10:58:37;19.27;;;17.63;;
8584;SDS011;7180;52.742;11.420;2024-01-30T11:01:03;19.80;;;18.00;;
8584;SDS011;7180;52.742;11.420;2024-01-30T11:03:29;19.23;;;17.60;;
8584;SDS011;7180;52.742;11.420;2024-01-30T11:05:58;19.30;;;17.60;;
8584;SDS011;7180;52.742;11.420;2024-01-30T11:08:25;19.33;;;17.53;;
8584;SDS011;7180;52.742;11.420;2024-01-30T11:10:55;18.70;;;17.03;;
8584;SDS011;7180;52.742;11.420;2024-01-30T11:13:22;18.43;;;16.93;;
8584;SDS011;7180;52.742;11.420;2024-01-30T11:15:51;18.20;;;16.67;;
8584;SDS011;7180;52.742;11.420;2024-01-30T11:18:26;18.10;;;16.57;;
8584;SDS011;7180;52.742;11.420;2024-01-30T11:20:57;18.63;;;17.10;;
8584;SDS011;7180;52.742;11.420;2024-01-30T11:23:26;18.03;;;16.53;;
8584;SDS011;7180;52.742;11.420;2024-01-30T11:25:52;18.23;;;16.53;;
8584;SDS011;7180;52.742;11.420;2024-01-30T11:28:18;17.70;;;16.20;;
8584;SDS011;7180;52.742;11.420;2024-01-30T11:30:45;17.97;;;16.47;;
8584;SDS011;7180;52.742;11.420;2024-01-30T11:33:12;17.63;;;16.23;;
8584;SDS011;7180;52.742;11.420;2024-01-30T11:35:42;17.87;;;16.47;;
8584;SDS011;7180;52.742;11.420;2024-01-30T11:38:13;18.17;;;16.57;;
8584;SDS011;7180;52.742;11.420;2024-01-30T11:40:39;18.13;;;16.63;;
8584;SDS011;7180;52.742;11.420;2024-01-30T11:43:05;17.80;;;16.17;;
8584;SDS011;7180;52.742;11.420;2024-01-30T11:45:32;18.33;;;16.90;;
8584;SDS011;7180;52.742;11.420;2024-01-30T11:47:58;18.13;;;16.63;;
8584;SDS011;7180;52.742;11.420;2024-01-30T11:50:28;18.47;;;16.93;;
8584;SDS011;7180;52.742;11.420;2024-01-30T11:52:54;17.60;;;16.20;;
8584;SDS011;7180;52.742;11.420;2024-01-30T11:55:20;17.73;;;16.23;;
8584;SDS011;7180;52.742;11.420;2024-01-30T11:57:45;18.63;;;17.13;;
8584;SDS011;7180;52.742;11.420;2024-01-30T12:00:19;17.63;;;16.23;;
8584;SDS011;7180;52.742;11.420;2024-01-30T12:02:49;17.30;;;15.93;;
8584;SDS011;7180;52.742;11.420;2024-01-30T12:05:15;17.63;;;16.13;;
8584;SDS011;7180;52.742;11.420;2024-01-30T12:07:40;18.77;;;17.20;;
8584;SDS011;7180;52.742;11.420;2024-01-30T12:10:09;18.93;;;17.43;;
8584;SDS011;7180;52.742;11.420;2024-01-30T12:12:34;18.50;;;17.00;;
8584;SDS011;7180;52.742;11.420;2024-01-30T12:15:00;18.60;;;17.03;;
8584;SDS011;7180;52.742;11.420;2024-01-30T12:17:29;19.03;;;17.43;;
8584;SDS011;7180;52.742;11.420;2024-01-30T12:20:10;18.80;;;17.20;;
8584;SDS011;7180;52.742;11.420;2024-01-30T12:22:37;19.33;;;17.50;;
8584;SDS011;7180;52.742;11.420;2024-01-30T12:25:09;18.47;;;16.97;;
8584;SDS011;7180;52.742;11.420;2024-01-30T12:27:36;18.97;;;17.37;;
8584;SDS011;7180;52.742;11.420;2024-01-30T12:30:05;19.90;;;18.07;;
8584;SDS011;7180;52.742;11.420;2024-01-30T12:32:31;19.27;;;17.77;;
8584;SDS011;7180;52.742;11.420;2024-01-30T12:34:56;17.87;;;16.37;;
8584;SDS011;7180;52.742;11.420;2024-01-30T12:37:24;19.67;;;17.87;;
8584;SDS011;7180;52.742;11.420;2024-01-30T12:39:51;27.87;;;24.50;;
8584;SDS011;7180;52.742;11.420;2024-01-30T12:42:18;43.27;;;33.93;;
8584;SDS011;7180;52.742;11.420;2024-01-30T12:44:44;37.60;;;30.57;;
8584;SDS011;7180;52.742;11.420;2024-01-30T12:47:10;18.67;;;16.93;;
8584;SDS011;7180;52.742;11.420;2024-01-30T12:49:35;16.90;;;15.50;;
8584;SDS011;7180;52.742;11.420;2024-01-30T12:52:00;17.10;;;15.57;;
8584;SDS011;7180;52.742;11.420;2024-01-30T12:54:26;16.53;;;15.23;;
8584;SDS011;7180;52.742;11.420;2024-01-30T12:56:51;16.17;;;14.70;;
8584;SDS011;7180;52.742;11.420;2024-01-30T12:59:16;16.37;;;14.93;;
8584;SDS011;7180;52.742;11.420;2024-01-30T13:01:42;15.60;;;14.27;;
8584;SDS011;7180;52.742;11.420;2024-01-30T13:04:07;16.10;;;14.73;;
8584;SDS011;7180;52.742;11.420;2024-01-30T13:06:33;16.70;;;15.07;;
8584;SDS011;7180;52.742;11.420;2024-01-30T13:08:58;17.60;;;16.10;;
8584;SDS011;7180;52.742;11.420;2024-01-30T13:11:23;17.63;;;16.20;;
8584;SDS011;7180;52.742;11.420;2024-01-30T13:13:50;17.13;;;15.73;;
8584;SDS011;7180;52.742;11.420;2024-01-30T13:16:16;17.37;;;15.93;;
8584;SDS011;7180;52.742;11.420;2024-01-30T13:18:41;17.97;;;16.37;;
8584;SDS011;7180;52.742;11.420;2024-01-30T13:21:06;18.73;;;17.03;;
8584;SDS011;7180;52.742;11.420;2024-01-30T13:23:32;17.47;;;16.07;;
8584;SDS011;7180;52.742;11.420;2024-01-30T13:25:57;17.20;;;15.63;;
8584;SDS011;7180;52.742;11.420;2024-01-30T13:28:23;16.10;;;14.90;;
8584;SDS011;7180;52.742;11.420;2024-01-30T13:30:49;16.50;;;15.20;;
8584;SDS011;7180;52.742;11.420;2024-01-30T13:33:14;16.73;;;15.43;;
8584;SDS011;7180;52.742;11.420;2024-01-30T13:35:39;17.17;;;15.77;;
8584;SDS011;7180;52.742;11.420;2024-01-30T13:38:04;18.57;;;16.80;;
8584;SDS011;7180;52.742;11.420;2024-01-30T13:40:30;18.50;;;17.00;;
8584;SDS011;7180;52.742;11.420;2024-01-30T13:42:55;18.37;;;16.87;;
8584;SDS011;7180;52.742;11.420;2024-01-30T13:45:20;17.53;;;16.03;;
8584;SDS011;7180;52.742;11.420;2024-01-30T13:47:46;17.67;;;15.93;;
8584;SDS011;7180;52.742;11.420;2024-01-30T13:50:11;16.20;;;14.80;;
8584;SDS011;7180;52.742;11.420;2024-01-30T13:52:40;74.97;;;31.77;;
8584;SDS011;7180;52.742;11.420;2024-01-30T13:55:06;15.60;;;14.37;;
8584;SDS011;7180;52.742;11.420;2024-01-30T13:57:31;16.87;;;15.47;;
8584;SDS011;7180;52.742;11.420;2024-01-30T14:00:00;14.63;;;13.57;;
8584;SDS011;7180;52.742;11.420;2024-01-30T14:02:25;16.17;;;14.87;;
8584;SDS011;7180;52.742;11.420;2024-01-30T14:04:50;16.50;;;15.10;;
8584;SDS011;7180;52.742;11.420;2024-01-30T14:07:15;16.00;;;14.50;;
8584;SDS011;7180;52.742;11.420;2024-01-30T14:09:43;16.00;;;14.70;;
8584;SDS011;7180;52.742;11.420;2024-01-30T14:12:08;15.33;;;14.13;;
8584;SDS011;7180;52.742;11.420;2024-01-30T14:14:33;16.77;;;15.37;;
8584;SDS011;7180;52.742;11.420;2024-01-30T14:16:59;15.90;;;14.70;;
8584;SDS011;7180;52.742;11.420;2024-01-30T14:19:24;16.20;;;15.00;;
8584;SDS011;7180;52.742;11.420;2024-01-30T14:21:49;16.20;;;14.90;;
8584;SDS011;7180;52.742;11.420;2024-01-30T14:24:15;16.00;;;14.63;;
8584;SDS011;7180;52.742;11.420;2024-01-30T14:26:40;15.80;;;14.50;;
8584;SDS011;7180;52.742;11.420;2024-01-30T14:29:05;15.07;;;13.87;;